createdAt,value
2017-06-26T00:01:13.471Z,66.41
2017-06-26T00:03:40.914Z,66.30
2017-06-26T00:06:08.386Z,66.32
2017-06-26T00:08:36.378Z,66.44
2017-06-26T00:11:05.544Z,66.39
2017-06-26T00:13:34.355Z,66.32
2017-06-26T00:16:01.815Z,66.32
2017-06-26T00:18:29.988Z,66.17
2017-06-26T00:20:58.719Z,66.11
2017-06-26T00:23:27.098Z,65.97
2017-06-26T00:25:55.334Z,65.83
2017-06-26T00:28:23.109Z,65.87
2017-06-26T00:30:52.104Z,65.82
2017-06-26T00:33:20.787Z,65.79
2017-06-26T00:35:49.192Z,65.79
2017-06-26T00:38:16.994Z,65.81
2017-06-26T00:40:45.922Z,65.79
2017-06-26T00:43:15.222Z,65.82
2017-06-26T00:45:43.649Z,65.80
2017-06-26T00:48:12.084Z,65.85
2017-06-26T00:50:39.916Z,65.91
2017-06-26T00:53:07.991Z,65.89
2017-06-26T00:55:36.203Z,65.93
2017-06-26T00:58:04.843Z,65.87
2017-06-26T01:00:32.758Z,65.80
2017-06-26T01:03:01.153Z,65.84
2017-06-26T01:05:28.893Z,65.82
2017-06-26T01:07:56.971Z,65.83
2017-06-26T01:10:24.799Z,65.84
2017-06-26T01:12:52.815Z,65.82
2017-06-26T01:15:20.895Z,65.74
2017-06-26T01:17:49.266Z,65.72
2017-06-26T01:20:16.822Z,65.63
2017-06-26T01:22:44.388Z,65.53
2017-06-26T01:25:12.252Z,65.49
2017-06-26T01:27:41.151Z,65.42
2017-06-26T01:30:08.911Z,65.50
2017-06-26T01:32:36.774Z,65.46
2017-06-26T01:35:04.309Z,65.35
2017-06-26T01:37:32.306Z,65.45
2017-06-26T01:40:00.379Z,65.51
2017-06-26T01:42:27.982Z,65.53
2017-06-26T01:44:56.070Z,65.43
2017-06-26T01:47:24.482Z,65.44
2017-06-26T01:49:52.544Z,65.45
2017-06-26T01:52:20.332Z,65.47
2017-06-26T01:54:49.199Z,65.51
2017-06-26T01:57:17.607Z,65.42
2017-06-26T01:59:45.206Z,65.38
2017-06-26T02:02:13.234Z,65.39
2017-06-26T02:04:41.206Z,65.37
2017-06-26T02:07:09.380Z,65.42
2017-06-26T02:09:37.664Z,65.37
2017-06-26T02:12:06.118Z,65.44
2017-06-26T02:14:34.213Z,65.43
2017-06-26T02:17:01.959Z,65.39
2017-06-26T02:19:30.051Z,65.41
2017-06-26T02:21:58.724Z,65.35
2017-06-26T02:24:26.510Z,65.39
2017-06-26T02:26:54.624Z,65.35
2017-06-26T02:29:23.167Z,65.34
2017-06-26T02:31:51.085Z,65.31
2017-06-26T02:34:19.006Z,65.20
2017-06-26T02:36:46.470Z,65.10
2017-06-26T02:39:13.995Z,65.16
2017-06-26T02:41:42.607Z,65.31
2017-06-26T02:44:10.776Z,65.35
2017-06-26T02:46:39.156Z,65.36
2017-06-26T02:49:06.981Z,65.37
2017-06-26T02:51:34.450Z,65.35
2017-06-26T02:54:03.695Z,65.25
2017-06-26T02:56:32.276Z,65.25
2017-06-26T02:58:59.823Z,65.17
2017-06-26T03:01:28.416Z,65.07
2017-06-26T03:03:56.519Z,65.13
2017-06-26T03:06:23.953Z,65.20
2017-06-26T03:08:51.716Z,64.96
2017-06-26T03:11:20.194Z,65.09
2017-06-26T03:13:48.299Z,65.07
2017-06-26T03:16:15.928Z,65.13
2017-06-26T03:18:43.438Z,65.07
2017-06-26T03:21:10.955Z,65.06
2017-06-26T03:23:40.590Z,65.02
2017-06-26T03:26:09.238Z,64.98
2017-06-26T03:28:36.698Z,64.99
2017-06-26T03:31:04.663Z,64.98
2017-06-26T03:33:32.435Z,64.96
2017-06-26T03:36:01.131Z,64.89
2017-06-26T03:38:29.308Z,64.95
2017-06-26T03:40:57.574Z,64.91
2017-06-26T03:43:25.346Z,64.92
2017-06-26T03:45:54.170Z,64.90
2017-06-26T03:48:22.787Z,64.83
2017-06-26T03:50:50.816Z,64.82
2017-06-26T03:53:19.267Z,64.84
2017-06-26T03:55:47.831Z,64.81
2017-06-26T03:58:16.045Z,64.83
2017-06-26T04:00:44.842Z,64.82
2017-06-26T04:03:12.494Z,64.89
2017-06-26T04:05:40.520Z,64.86
2017-06-26T04:08:08.728Z,64.78
2017-06-26T04:10:36.275Z,64.80
2017-06-26T04:13:04.026Z,64.69
2017-06-26T04:15:32.302Z,64.63
2017-06-26T04:18:00.402Z,64.66
2017-06-26T04:20:28.264Z,64.61
2017-06-26T04:22:56.762Z,64.58
2017-06-26T04:25:24.731Z,64.63
2017-06-26T04:27:52.194Z,64.59
2017-06-26T04:30:20.243Z,64.70
2017-06-26T04:32:48.322Z,64.68
2017-06-26T04:35:16.298Z,64.62
2017-06-26T04:37:45.293Z,64.54
2017-06-26T04:40:13.675Z,64.51
2017-06-26T04:42:41.202Z,64.42
2017-06-26T04:45:09.507Z,64.37
2017-06-26T04:47:37.567Z,64.39
2017-06-26T04:50:06.098Z,64.30
2017-06-26T04:52:33.624Z,64.28
2017-06-26T04:55:01.585Z,64.26
2017-06-26T04:57:29.664Z,64.39
2017-06-26T04:59:57.395Z,64.37
2017-06-26T05:02:25.702Z,64.38
2017-06-26T05:04:53.782Z,64.49
2017-06-26T05:07:21.610Z,64.38
2017-06-26T05:09:49.095Z,64.28
2017-06-26T05:12:17.085Z,64.33
2017-06-26T05:14:45.461Z,64.40
2017-06-26T05:17:13.474Z,64.38
2017-06-26T05:19:41.624Z,64.45
2017-06-26T05:22:09.676Z,64.44
2017-06-26T05:24:37.469Z,64.44
2017-06-26T05:27:05.407Z,64.44
2017-06-26T05:29:33.063Z,64.46
2017-06-26T05:32:01.020Z,64.51
2017-06-26T05:34:28.995Z,64.52
2017-06-26T05:36:56.884Z,64.40
2017-06-26T05:39:24.728Z,64.32
2017-06-26T05:41:52.715Z,64.35
2017-06-26T05:44:20.582Z,64.42
2017-06-26T05:46:48.662Z,64.42
2017-06-26T05:49:17.556Z,64.44
2017-06-26T05:51:45.398Z,64.35
2017-06-26T05:54:13.535Z,64.32
2017-06-26T05:56:41.463Z,64.36
2017-06-26T05:59:09.538Z,64.48
2017-06-26T06:01:37.789Z,64.58
2017-06-26T06:04:05.807Z,64.51
2017-06-26T06:06:33.737Z,64.44
2017-06-26T06:09:01.221Z,64.47
2017-06-26T06:11:29.080Z,64.55
2017-06-26T06:13:57.154Z,64.59
2017-06-26T06:16:24.814Z,64.60
2017-06-26T06:18:53.197Z,64.69
2017-06-26T06:21:22.248Z,64.62
2017-06-26T06:23:49.701Z,64.59
2017-06-26T06:26:17.160Z,64.70
2017-06-26T06:28:44.897Z,64.85
2017-06-26T06:31:12.939Z,64.92
2017-06-26T06:33:40.715Z,64.95
2017-06-26T06:36:08.209Z,64.92
2017-06-26T06:38:36.228Z,64.89
2017-06-26T06:41:04.007Z,65.01
2017-06-26T06:43:31.475Z,65.05
2017-06-26T06:45:59.404Z,64.98
2017-06-26T06:48:27.094Z,64.99
2017-06-26T06:50:54.859Z,64.96
2017-06-26T06:53:22.628Z,64.97
2017-06-26T06:55:50.483Z,64.82
2017-06-26T06:58:18.767Z,64.85
2017-06-26T07:00:46.546Z,64.78
2017-06-26T07:03:14.499Z,64.46
2017-06-26T07:05:41.983Z,63.84
2017-06-26T07:08:09.509Z,63.83
2017-06-26T07:10:37.471Z,63.93
2017-06-26T07:13:05.017Z,64.61
2017-06-26T07:15:33.023Z,64.27
2017-06-26T07:18:00.608Z,64.59
2017-06-26T07:20:28.245Z,64.21
2017-06-26T07:22:56.315Z,64.20
2017-06-26T07:25:23.991Z,64.00
2017-06-26T07:27:51.572Z,63.96
2017-06-26T07:30:19.842Z,63.84
2017-06-26T07:32:47.268Z,63.32
2017-06-26T07:35:15.463Z,63.06
2017-06-26T07:37:43.527Z,63.11
2017-06-26T07:40:10.999Z,62.74
2017-06-26T07:42:39.274Z,62.63
2017-06-26T07:45:06.836Z,62.54
2017-06-26T07:47:34.342Z,62.31
2017-06-26T07:50:01.827Z,62.10
2017-06-26T07:52:29.603Z,61.92
2017-06-26T07:54:57.086Z,61.96
2017-06-26T07:57:24.720Z,61.76
2017-06-26T07:59:52.211Z,61.81
2017-06-26T08:02:19.847Z,61.78
2017-06-26T08:04:47.615Z,61.78
2017-06-26T08:07:15.094Z,61.73
2017-06-26T08:09:43.114Z,61.72
2017-06-26T08:12:11.217Z,61.76
2017-06-26T08:14:39.148Z,61.70
2017-06-26T08:17:07.364Z,61.73
2017-06-26T08:19:34.807Z,61.71
2017-06-26T08:22:02.683Z,61.75
2017-06-26T08:24:30.475Z,61.74
2017-06-26T08:26:59.320Z,61.63
2017-06-26T08:29:26.798Z,61.72
2017-06-26T08:31:54.875Z,61.72
2017-06-26T08:34:22.775Z,61.71
2017-06-26T08:36:51.431Z,61.77
2017-06-26T08:39:19.726Z,61.78
2017-06-26T08:41:47.174Z,62.02
2017-06-26T08:44:15.442Z,62.39
2017-06-26T08:46:42.919Z,62.41
2017-06-26T08:49:11.036Z,62.31
2017-06-26T08:51:38.507Z,62.39
2017-06-26T08:54:06.303Z,62.36
2017-06-26T08:56:34.376Z,62.49
2017-06-26T08:59:02.252Z,62.46
2017-06-26T09:01:30.032Z,62.47
2017-06-26T09:03:57.674Z,62.52
2017-06-26T09:06:25.205Z,62.89
2017-06-26T09:08:52.711Z,62.41
2017-06-26T09:11:20.359Z,62.60
2017-06-26T09:13:48.211Z,62.89
2017-06-26T09:16:15.780Z,62.91
2017-06-26T09:18:43.863Z,62.77
2017-06-26T09:21:11.400Z,63.10
2017-06-26T09:23:38.970Z,62.59
2017-06-26T09:26:06.542Z,62.49
2017-06-26T09:28:34.743Z,62.45
2017-06-26T09:31:02.576Z,62.46
2017-06-26T09:33:30.103Z,62.28
2017-06-26T09:35:57.599Z,62.24
2017-06-26T09:38:25.422Z,62.09
2017-06-26T09:40:53.088Z,61.89
2017-06-26T09:43:20.686Z,61.95
2017-06-26T09:45:48.179Z,61.77
2017-06-26T09:48:15.679Z,61.90
2017-06-26T09:50:43.465Z,61.58
2017-06-26T09:53:11.160Z,61.45
2017-06-26T09:55:39.206Z,61.33
2017-06-26T09:58:06.960Z,61.32
2017-06-26T10:00:35.187Z,61.34
2017-06-26T10:03:02.647Z,61.99
2017-06-26T10:05:30.372Z,61.50
2017-06-26T10:07:58.446Z,61.31
2017-06-26T10:10:26.187Z,61.40
2017-06-26T10:12:53.620Z,61.01
2017-06-26T10:15:21.242Z,61.10
2017-06-26T10:17:49.094Z,61.17
2017-06-26T10:20:17.864Z,61.32
2017-06-26T10:22:45.667Z,61.13
2017-06-26T10:25:13.722Z,61.30
2017-06-26T10:27:41.455Z,61.19
2017-06-26T10:30:09.452Z,61.11
2017-06-26T10:32:37.219Z,60.99
2017-06-26T10:35:05.217Z,61.07
2017-06-26T10:37:33.060Z,61.04
2017-06-26T10:40:01.025Z,61.08
2017-06-26T10:42:28.791Z,61.09
2017-06-26T10:44:56.327Z,61.16
2017-06-26T10:47:23.919Z,61.21
2017-06-26T10:49:51.685Z,61.25
2017-06-26T10:52:20.126Z,61.22
2017-06-26T10:54:47.887Z,61.27
2017-06-26T10:57:15.631Z,61.21
2017-06-26T10:59:43.355Z,61.17
2017-06-26T11:02:11.008Z,61.17
2017-06-26T11:04:38.575Z,61.16
2017-06-26T11:07:06.860Z,61.21
2017-06-26T11:09:34.400Z,61.18
2017-06-26T11:12:02.079Z,61.19
2017-06-26T11:14:30.151Z,61.11
2017-06-26T11:16:58.226Z,61.24
2017-06-26T11:19:25.994Z,61.25
2017-06-26T11:21:53.477Z,61.37
2017-06-26T11:24:21.503Z,61.00
2017-06-26T11:26:49.499Z,60.98
2017-06-26T11:29:17.100Z,61.02
2017-06-26T11:31:45.420Z,61.08
2017-06-26T11:34:13.368Z,61.09
2017-06-26T11:36:41.572Z,60.96
2017-06-26T11:39:09.019Z,60.93
2017-06-26T11:41:36.635Z,60.89
2017-06-26T11:44:05.143Z,60.82
2017-06-26T11:46:32.949Z,60.81
2017-06-26T11:49:00.807Z,60.79
2017-06-26T11:51:28.783Z,60.64
2017-06-26T11:53:56.863Z,60.57
2017-06-26T11:56:24.644Z,60.48
2017-06-26T11:58:53.250Z,61.26
2017-06-26T12:01:21.578Z,60.55
2017-06-26T12:03:49.032Z,60.70
2017-06-26T12:06:16.673Z,60.69
2017-06-26T12:08:44.243Z,60.17
2017-06-26T12:11:12.285Z,60.06
2017-06-26T12:13:40.041Z,60.23
2017-06-26T12:16:07.835Z,60.26
2017-06-26T12:18:35.551Z,60.13
2017-06-26T12:21:04.201Z,60.10
2017-06-26T12:23:31.847Z,60.03
2017-06-26T12:26:00.271Z,60.02
2017-06-26T12:28:28.890Z,59.83
2017-06-26T12:30:57.220Z,59.74
2017-06-26T12:33:24.678Z,59.85
2017-06-26T12:35:52.163Z,59.59
2017-06-26T12:38:19.627Z,59.51
2017-06-26T12:40:47.136Z,59.49
2017-06-26T12:43:15.026Z,59.40
2017-06-26T12:45:42.584Z,59.35
2017-06-26T12:48:10.332Z,59.32
2017-06-26T12:50:38.332Z,59.47
2017-06-26T12:53:06.403Z,59.86
2017-06-26T12:55:34.323Z,59.82
2017-06-26T12:58:02.689Z,59.40
2017-06-26T13:00:30.969Z,59.51
2017-06-26T13:02:58.688Z,59.40
2017-06-26T13:05:27.473Z,59.46
2017-06-26T13:07:55.111Z,59.50
2017-06-26T13:10:23.211Z,59.03
2017-06-26T13:12:50.974Z,58.97
2017-06-26T13:15:18.836Z,59.42
2017-06-26T13:17:46.688Z,59.18
2017-06-26T13:20:14.179Z,59.11
2017-06-26T13:22:41.611Z,58.85
2017-06-26T13:25:09.392Z,59.46
2017-06-26T13:27:37.168Z,58.90
2017-06-26T13:30:05.728Z,58.77
2017-06-26T13:32:33.942Z,58.14
2017-06-26T13:35:01.855Z,58.15
2017-06-26T13:37:29.951Z,58.26
2017-06-26T13:39:57.827Z,58.25
2017-06-26T13:42:25.949Z,58.18
2017-06-26T13:44:53.666Z,58.19
2017-06-26T13:47:21.304Z,58.19
2017-06-26T13:49:49.033Z,58.21
2017-06-26T13:52:16.655Z,58.21
2017-06-26T13:54:44.612Z,58.21
2017-06-26T13:57:13.211Z,58.33
2017-06-26T13:59:40.710Z,58.21
2017-06-26T14:02:08.520Z,58.37
2017-06-26T14:04:36.171Z,58.37
2017-06-26T14:07:04.580Z,58.28
2017-06-26T14:09:32.071Z,58.30
2017-06-26T14:11:59.831Z,58.40
2017-06-26T14:14:27.926Z,58.29
2017-06-26T14:16:55.430Z,58.50
2017-06-26T14:19:24.015Z,58.59
2017-06-26T14:21:51.722Z,59.05
2017-06-26T14:24:19.323Z,58.72
2017-06-26T14:26:46.827Z,58.73
2017-06-26T14:29:15.186Z,58.68
2017-06-26T14:31:43.218Z,59.01
2017-06-26T14:34:11.636Z,58.53
2017-06-26T14:36:39.499Z,58.26
2017-06-26T14:39:07.283Z,58.40
2017-06-26T14:41:36.260Z,58.45
2017-06-26T14:44:04.238Z,58.27
2017-06-26T14:46:31.802Z,58.24
2017-06-26T14:48:59.998Z,58.16
2017-06-26T14:51:27.500Z,58.22
2017-06-26T14:53:56.087Z,58.00
2017-06-26T14:56:23.877Z,57.99
2017-06-26T14:58:51.742Z,57.98
2017-06-26T15:01:19.594Z,57.94
2017-06-26T15:03:47.382Z,57.87
2017-06-26T15:06:15.150Z,57.77
2017-06-26T15:08:43.215Z,57.65
2017-06-26T15:11:11.167Z,57.57
2017-06-26T15:13:39.367Z,57.54
2017-06-26T15:16:07.208Z,57.46
2017-06-26T15:18:35.096Z,57.42
2017-06-26T15:21:03.354Z,57.41
2017-06-26T15:23:31.347Z,57.44
2017-06-26T15:25:58.794Z,57.42
2017-06-26T15:28:26.690Z,57.32
2017-06-26T15:30:54.966Z,57.38
2017-06-26T15:33:22.786Z,57.42
2017-06-26T15:35:50.886Z,57.35
2017-06-26T15:38:18.760Z,57.32
2017-06-26T15:40:46.837Z,57.30
2017-06-26T15:43:14.479Z,57.26
2017-06-26T15:45:42.338Z,57.31
2017-06-26T15:48:19.233Z,57.36
2017-06-26T15:50:47.252Z,57.26
2017-06-26T15:53:14.687Z,57.22
2017-06-26T15:55:43.659Z,57.26
2017-06-26T15:58:11.433Z,57.31
2017-06-26T16:00:39.908Z,57.33
2017-06-26T16:03:07.980Z,57.33
2017-06-26T16:05:35.435Z,57.28
2017-06-26T16:08:03.640Z,57.31
2017-06-26T16:10:31.791Z,57.40
2017-06-26T16:12:59.290Z,57.39
2017-06-26T16:15:27.016Z,57.49
2017-06-26T16:17:54.779Z,57.50
2017-06-26T16:20:22.577Z,57.40
2017-06-26T16:22:50.411Z,57.57
2017-06-26T16:25:18.275Z,57.64
2017-06-26T16:27:46.162Z,57.67
2017-06-26T16:30:14.135Z,57.78
2017-06-26T16:32:41.603Z,58.08
2017-06-26T16:35:10.427Z,58.17
2017-06-26T16:37:37.953Z,58.14
2017-06-26T16:40:05.906Z,57.96
2017-06-26T16:42:34.025Z,58.25
2017-06-26T16:45:01.500Z,58.10
2017-06-26T16:47:29.207Z,58.18
2017-06-26T16:49:56.931Z,57.71
2017-06-26T16:52:24.541Z,57.90
2017-06-26T16:54:52.490Z,57.74
2017-06-26T16:57:20.148Z,57.73
2017-06-26T16:59:48.018Z,57.70
2017-06-26T17:02:16.649Z,57.37
2017-06-26T17:04:44.361Z,57.28
2017-06-26T17:07:12.447Z,57.20
2017-06-26T17:09:40.044Z,57.21
2017-06-26T17:12:07.522Z,57.16
2017-06-26T17:14:35.227Z,57.01
2017-06-26T17:17:02.731Z,57.15
2017-06-26T17:19:30.552Z,57.18
2017-06-26T17:21:58.323Z,57.34
2017-06-26T17:24:25.879Z,56.68
2017-06-26T17:26:53.952Z,57.11
2017-06-26T17:29:21.511Z,56.64
2017-06-26T17:31:50.095Z,56.71
2017-06-26T17:34:17.892Z,56.67
2017-06-26T17:36:45.422Z,56.52
2017-06-26T17:39:12.874Z,56.62
2017-06-26T17:41:40.483Z,56.50
2017-06-26T17:44:07.956Z,56.52
2017-06-26T17:46:35.391Z,56.54
2017-06-26T17:49:02.833Z,56.55
2017-06-26T17:51:30.678Z,56.61
2017-06-26T17:53:58.647Z,56.68
2017-06-26T17:56:26.165Z,56.67
2017-06-26T17:58:53.851Z,56.76
2017-06-26T18:01:21.464Z,56.76
2017-06-26T18:03:49.466Z,56.80
2017-06-26T18:06:16.943Z,56.85
2017-06-26T18:08:44.939Z,56.88
2017-06-26T18:11:13.227Z,56.94
2017-06-26T18:13:41.163Z,56.99
2017-06-26T18:16:08.847Z,57.46
2017-06-26T18:18:36.835Z,57.60
2017-06-26T18:21:04.406Z,57.52
2017-06-26T18:23:32.244Z,57.34
2017-06-26T18:26:00.167Z,57.30
2017-06-26T18:28:27.760Z,57.44
2017-06-26T18:30:55.257Z,57.29
2017-06-26T18:33:23.506Z,57.47
2017-06-26T18:35:50.967Z,57.08
2017-06-26T18:38:18.749Z,56.95
2017-06-26T18:40:46.910Z,56.91
2017-06-26T18:43:15.181Z,56.86
2017-06-26T18:45:44.134Z,56.87
2017-06-26T18:48:11.780Z,57.18
2017-06-26T18:50:39.797Z,57.23
2017-06-26T18:53:08.630Z,57.29
2017-06-26T18:55:36.880Z,57.07
2017-06-26T18:58:04.939Z,57.03
2017-06-26T19:00:32.459Z,57.11
2017-06-26T19:03:01.110Z,57.14
2017-06-26T19:05:29.152Z,57.14
2017-06-26T19:07:56.936Z,57.13
2017-06-26T19:10:25.012Z,57.23
2017-06-26T19:12:52.640Z,57.33
2017-06-26T19:15:20.111Z,57.34
2017-06-26T19:17:48.098Z,57.30
2017-06-26T19:20:15.690Z,57.35
2017-06-26T19:22:43.184Z,57.33
2017-06-26T19:25:10.983Z,57.29
2017-06-26T19:27:38.760Z,57.34
2017-06-26T19:30:06.789Z,57.38
2017-06-26T19:32:34.496Z,57.39
2017-06-26T19:35:02.917Z,57.48
2017-06-26T19:37:30.640Z,57.46
2017-06-26T19:39:58.403Z,57.47
2017-06-26T19:42:27.826Z,57.53
2017-06-26T19:44:56.485Z,57.55
2017-06-26T19:47:24.558Z,57.58
2017-06-26T19:49:52.834Z,57.81
2017-06-26T19:52:21.626Z,58.24
2017-06-26T19:54:49.367Z,57.78
2017-06-26T19:57:17.289Z,57.61
2017-06-26T19:59:44.949Z,57.33
2017-06-26T20:02:12.994Z,57.34
2017-06-26T20:04:40.642Z,57.27
2017-06-26T20:07:08.532Z,57.13
2017-06-26T20:09:36.292Z,56.78
2017-06-26T20:12:03.835Z,56.75
2017-06-26T20:14:31.523Z,56.60
2017-06-26T20:16:59.690Z,56.32
2017-06-26T20:19:27.662Z,55.91
2017-06-26T20:21:55.232Z,55.15
2017-06-26T20:24:23.906Z,54.94
2017-06-26T20:26:52.194Z,54.15
2017-06-26T20:29:19.640Z,53.59
2017-06-26T20:31:48.331Z,53.48
2017-06-26T20:34:16.670Z,53.30
2017-06-26T20:36:44.215Z,52.91
2017-06-26T20:39:11.720Z,53.09
2017-06-26T20:41:39.211Z,53.27
2017-06-26T20:44:07.259Z,53.16
2017-06-26T20:46:35.126Z,53.14
2017-06-26T20:49:03.482Z,53.39
2017-06-26T20:51:31.706Z,53.76
2017-06-26T20:53:59.696Z,54.25
2017-06-26T20:56:28.272Z,54.48
2017-06-26T20:58:55.719Z,54.62
2017-06-26T21:01:24.183Z,54.65
2017-06-26T21:03:51.743Z,54.63
2017-06-26T21:06:19.918Z,54.61
2017-06-26T21:08:47.598Z,54.92
2017-06-26T21:11:15.347Z,55.37
2017-06-26T21:13:43.240Z,55.20
2017-06-26T21:16:10.899Z,55.92
2017-06-26T21:18:38.843Z,55.53
2017-06-26T21:21:06.605Z,55.64
2017-06-26T21:23:34.052Z,55.62
2017-06-26T21:26:02.963Z,55.56
2017-06-26T21:28:31.236Z,55.41
2017-06-26T21:30:58.915Z,55.64
2017-06-26T21:33:26.771Z,55.94
2017-06-26T21:35:54.843Z,55.87
2017-06-26T21:38:22.598Z,56.19
2017-06-26T21:40:50.544Z,55.94
2017-06-26T21:43:20.077Z,56.06
2017-06-26T21:45:48.150Z,55.98
2017-06-26T21:48:16.123Z,56.03
2017-06-26T21:50:43.951Z,55.97
2017-06-26T21:53:12.878Z,55.98
2017-06-26T21:55:40.604Z,55.83
2017-06-26T21:58:08.998Z,54.98
2017-06-26T22:00:36.793Z,54.26
2017-06-26T22:03:04.663Z,54.31
2017-06-26T22:05:32.525Z,54.02
2017-06-26T22:08:00.103Z,54.10
2017-06-26T22:10:27.778Z,53.56
2017-06-26T22:12:55.950Z,52.71
2017-06-26T22:15:24.144Z,52.78
2017-06-26T22:17:52.279Z,52.24
2017-06-26T22:20:20.637Z,52.50
2017-06-26T22:22:48.102Z,52.88
2017-06-26T22:25:16.490Z,52.39
2017-06-26T22:27:44.162Z,52.52
2017-06-26T22:30:12.796Z,52.91
2017-06-26T22:32:40.514Z,53.33
2017-06-26T22:35:08.782Z,53.34
2017-06-26T22:37:36.952Z,54.64
2017-06-26T22:40:04.624Z,53.86
2017-06-26T22:42:32.226Z,54.10
2017-06-26T22:44:59.736Z,55.04
2017-06-26T22:47:27.403Z,54.39
2017-06-26T22:49:54.975Z,54.34
2017-06-26T22:52:22.642Z,54.40
2017-06-26T22:54:50.532Z,54.64
2017-06-26T22:57:18.671Z,54.55
2017-06-26T22:59:46.438Z,54.41
2017-06-26T23:02:14.411Z,54.56
2017-06-26T23:04:41.863Z,54.48
2017-06-26T23:07:09.626Z,54.69
2017-06-26T23:09:37.243Z,54.54
2017-06-26T23:12:04.999Z,54.93
2017-06-26T23:14:32.955Z,54.71
2017-06-26T23:17:01.750Z,54.55
2017-06-26T23:19:29.483Z,54.62
2017-06-26T23:21:56.915Z,54.69
2017-06-26T23:24:25.522Z,54.66
2017-06-26T23:26:53.190Z,54.38
2017-06-26T23:29:21.261Z,54.28
2017-06-26T23:31:48.823Z,54.24
2017-06-26T23:34:16.590Z,54.39
2017-06-26T23:36:44.079Z,54.41
2017-06-26T23:39:11.910Z,54.29
2017-06-26T23:41:41.313Z,54.02
2017-06-26T23:44:08.980Z,54.02
2017-06-26T23:46:36.975Z,54.01
2017-06-26T23:49:05.051Z,54.11
2017-06-26T23:51:32.792Z,54.28
2017-06-26T23:54:01.240Z,54.27
2017-06-26T23:56:28.930Z,54.52
2017-06-26T23:58:56.841Z,54.69
